createdAt,value
2018-07-17T00:00:30.250Z,58.40
2018-07-17T00:01:34.378Z,58.50
2018-07-17T00:02:38.501Z,58.60
2018-07-17T00:03:42.546Z,58.60
2018-07-17T00:04:46.584Z,58.60
2018-07-17T00:05:50.622Z,58.70
2018-07-17T00:06:54.746Z,58.80
2018-07-17T00:07:58.817Z,58.90
2018-07-17T00:09:03.012Z,58.90
2018-07-17T00:10:07.711Z,59.00
2018-07-17T00:11:11.726Z,59.30
2018-07-17T00:12:15.899Z,59.00
2018-07-17T00:13:19.952Z,59.00
2018-07-17T00:14:24.030Z,59.00
2018-07-17T00:15:28.132Z,59.00
2018-07-17T00:16:32.251Z,59.00
2018-07-17T00:17:36.635Z,59.00
2018-07-17T00:18:40.751Z,59.10
2018-07-17T00:19:44.844Z,59.10
2018-07-17T00:20:48.953Z,59.00
2018-07-17T00:21:52.972Z,59.10
2018-07-17T00:22:57.041Z,59.80
2018-07-17T00:24:01.164Z,59.30
2018-07-17T00:25:05.466Z,59.40
2018-07-17T00:26:09.487Z,59.40
2018-07-17T00:27:13.598Z,59.40
2018-07-17T00:28:17.651Z,59.40
2018-07-17T00:29:21.787Z,59.50
2018-07-17T00:31:29.532Z,59.90
2018-07-17T00:32:34.325Z,59.60
2018-07-17T00:33:38.459Z,60.20
2018-07-17T00:34:42.515Z,59.70
2018-07-17T00:35:46.590Z,59.70
2018-07-17T00:36:50.670Z,59.70
2018-07-17T00:37:54.702Z,59.80
2018-07-17T00:38:58.754Z,59.70
2018-07-17T00:40:02.813Z,59.80
2018-07-17T00:41:06.937Z,59.70
2018-07-17T00:42:10.949Z,59.70
2018-07-17T00:43:14.974Z,59.80
2018-07-17T00:44:19.045Z,59.80
2018-07-17T00:46:26.767Z,59.90
2018-07-17T00:47:30.842Z,59.90
2018-07-17T00:48:34.986Z,59.90
2018-07-17T00:49:39.047Z,59.90
2018-07-17T00:51:46.817Z,59.90
2018-07-17T00:52:50.897Z,59.80
2018-07-17T00:53:54.919Z,59.90
2018-07-17T00:54:58.977Z,59.90
2018-07-17T00:56:03.142Z,59.90
2018-07-17T00:58:10.954Z,60.00
2018-07-17T00:59:14.998Z,59.90
2018-07-17T01:00:18.998Z,59.90
2018-07-17T01:01:28.445Z,59.90
2018-07-17T01:02:38.016Z,59.90
2018-07-17T01:04:57.536Z,60.50
2018-07-17T01:06:07.028Z,59.70
2018-07-17T01:07:16.559Z,59.70
2018-07-17T01:08:26.045Z,59.80
2018-07-17T01:09:35.518Z,59.90
2018-07-17T01:10:45.153Z,59.90
2018-07-17T01:11:54.626Z,59.90
2018-07-17T01:12:57.940Z,60.70
2018-07-17T01:14:05.853Z,59.90
2018-07-17T01:15:17.023Z,60.80
2018-07-17T01:16:21.081Z,60.10
2018-07-17T01:17:26.003Z,60.20
2018-07-17T01:18:30.114Z,60.10
2018-07-17T01:19:34.175Z,60.20
2018-07-17T01:20:38.243Z,60.20
2018-07-17T01:21:42.280Z,60.40
2018-07-17T01:22:46.372Z,60.40
2018-07-17T01:23:50.386Z,60.40
2018-07-17T01:24:54.512Z,60.40
2018-07-17T01:25:58.501Z,60.50
2018-07-17T01:27:02.528Z,60.50
2018-07-17T01:28:06.613Z,60.50
2018-07-17T01:29:10.691Z,60.60
2018-07-17T01:30:15.046Z,60.60
2018-07-17T01:31:19.145Z,60.50
2018-07-17T01:32:23.220Z,60.70
2018-07-17T01:33:27.300Z,60.70
2018-07-17T01:34:31.451Z,60.70
2018-07-17T01:35:35.574Z,60.80
2018-07-17T01:36:39.869Z,60.80
2018-07-17T01:37:43.968Z,61.10
2018-07-17T01:38:48.261Z,60.80
2018-07-17T01:39:52.348Z,60.90
2018-07-17T01:40:56.409Z,60.90
2018-07-17T01:42:00.555Z,61.10
2018-07-17T01:43:04.744Z,61.20
2018-07-17T01:44:08.756Z,61.30
2018-07-17T01:45:12.872Z,61.30
2018-07-17T01:46:16.951Z,61.30
2018-07-17T01:47:21.022Z,61.60
2018-07-17T01:48:25.082Z,61.80
2018-07-17T01:49:29.176Z,61.90
2018-07-17T01:50:33.306Z,61.70
2018-07-17T01:51:37.396Z,61.80
2018-07-17T01:52:41.477Z,62.00
2018-07-17T01:53:45.545Z,62.10
2018-07-17T01:54:49.576Z,62.10
2018-07-17T01:55:53.661Z,62.20
2018-07-17T01:56:57.726Z,62.30
2018-07-17T01:58:01.824Z,62.30
2018-07-17T01:59:05.908Z,62.40
2018-07-17T02:00:10.021Z,62.50
2018-07-17T02:01:17.091Z,62.60
2018-07-17T02:02:21.192Z,62.60
2018-07-17T02:03:25.244Z,62.60
2018-07-17T02:04:29.297Z,62.80
2018-07-17T02:05:33.321Z,62.90
2018-07-17T02:06:37.408Z,62.90
2018-07-17T02:07:41.424Z,63.00
2018-07-17T02:08:45.532Z,63.00
2018-07-17T02:09:49.611Z,63.10
2018-07-17T02:10:53.743Z,63.10
2018-07-17T02:13:01.494Z,63.20
2018-07-17T02:14:05.627Z,63.20
2018-07-17T02:15:09.812Z,63.30
2018-07-17T02:16:13.857Z,63.40
2018-07-17T02:17:17.963Z,63.40
2018-07-17T02:18:22.120Z,63.50
2018-07-17T02:19:26.175Z,63.60
2018-07-17T02:20:30.245Z,63.60
2018-07-17T02:21:34.464Z,63.60
2018-07-17T02:22:38.561Z,64.40
2018-07-17T02:23:42.759Z,64.60
2018-07-17T02:24:46.851Z,63.80
2018-07-17T02:25:50.861Z,64.10
2018-07-17T02:26:55.310Z,64.00
2018-07-17T02:27:59.408Z,64.00
2018-07-17T02:29:03.524Z,63.90
2018-07-17T02:30:07.626Z,64.10
2018-07-17T02:31:11.728Z,64.90
2018-07-17T02:32:15.760Z,64.20
2018-07-17T02:33:19.866Z,64.20
2018-07-17T02:34:24.105Z,64.30
2018-07-17T02:35:28.270Z,64.30
2018-07-17T02:36:32.351Z,64.50
2018-07-17T02:37:36.509Z,65.20
2018-07-17T02:38:40.594Z,64.50
2018-07-17T02:39:44.633Z,64.50
2018-07-17T02:40:48.646Z,64.50
2018-07-17T02:41:52.660Z,64.50
2018-07-17T02:42:56.705Z,64.60
2018-07-17T02:44:00.763Z,64.70
2018-07-17T02:45:04.822Z,64.60
2018-07-17T02:46:08.886Z,64.80
2018-07-17T02:47:12.995Z,64.80
2018-07-17T02:48:17.022Z,64.80
2018-07-17T02:49:21.088Z,64.80
2018-07-17T02:50:25.165Z,64.90
2018-07-17T02:51:29.288Z,64.90
2018-07-17T02:52:33.450Z,65.20
2018-07-17T02:53:37.518Z,65.20
2018-07-17T02:54:41.532Z,65.30
2018-07-17T02:55:45.736Z,65.40
2018-07-17T02:56:49.824Z,65.30
2018-07-17T02:57:53.869Z,66.20
2018-07-17T02:58:57.922Z,65.60
2018-07-17T03:00:02.021Z,64.90
2018-07-17T03:01:06.108Z,65.60
2018-07-17T03:02:10.127Z,65.80
2018-07-17T03:03:14.130Z,65.90
2018-07-17T03:04:18.317Z,66.00
2018-07-17T03:05:22.394Z,66.00
2018-07-17T03:06:26.509Z,66.20
2018-07-17T03:07:30.560Z,66.20
2018-07-17T03:08:34.639Z,66.30
2018-07-17T03:09:38.762Z,66.30
2018-07-17T03:10:42.818Z,66.50
2018-07-17T03:11:46.862Z,66.60
2018-07-17T03:12:50.950Z,66.50
2018-07-17T03:13:55.062Z,66.60
2018-07-17T03:14:59.125Z,66.70
2018-07-17T03:16:03.219Z,66.60
2018-07-17T03:17:07.567Z,66.80
2018-07-17T03:18:11.653Z,66.70
2018-07-17T03:19:15.784Z,67.60
2018-07-17T03:20:20.006Z,66.90
2018-07-17T03:21:24.022Z,66.90
2018-07-17T03:22:28.072Z,66.90
2018-07-17T03:23:32.125Z,67.00
2018-07-17T03:24:36.254Z,67.30
2018-07-17T03:25:40.329Z,67.20
2018-07-17T03:26:44.322Z,67.20
2018-07-17T03:27:48.408Z,67.10
2018-07-17T03:28:52.620Z,67.20
2018-07-17T03:29:56.646Z,67.30
2018-07-17T03:31:00.669Z,67.30
2018-07-17T03:32:04.768Z,67.30
2018-07-17T03:33:08.877Z,67.40
2018-07-17T03:34:13.034Z,67.40
2018-07-17T03:35:17.316Z,67.30
2018-07-17T03:36:21.475Z,67.40
2018-07-17T03:37:25.498Z,67.40
2018-07-17T03:38:29.546Z,67.40
2018-07-17T03:39:33.613Z,67.60
2018-07-17T03:40:37.770Z,67.70
2018-07-17T03:41:41.827Z,67.60
2018-07-17T03:42:45.889Z,67.70
2018-07-17T03:43:49.937Z,67.60
2018-07-17T03:44:53.993Z,67.60
2018-07-17T03:45:58.048Z,68.50
2018-07-17T03:47:02.349Z,67.70
2018-07-17T03:48:06.429Z,67.60
2018-07-17T03:49:10.549Z,68.50
2018-07-17T03:50:14.905Z,67.70
2018-07-17T03:51:18.995Z,67.80
2018-07-17T03:52:23.095Z,68.40
2018-07-17T03:53:27.295Z,67.80
2018-07-17T03:54:31.326Z,67.90
2018-07-17T03:55:35.394Z,68.10
2018-07-17T03:56:39.537Z,68.30
2018-07-17T03:57:43.664Z,68.50
2018-07-17T03:58:47.725Z,68.60
2018-07-17T03:59:51.717Z,68.90
2018-07-17T04:00:55.820Z,69.20
2018-07-17T04:01:59.811Z,68.90
2018-07-17T04:03:03.953Z,69.00
2018-07-17T04:04:08.049Z,69.40
2018-07-17T04:05:12.234Z,69.70
2018-07-17T04:06:16.272Z,69.80
2018-07-17T04:07:20.409Z,69.70
2018-07-17T04:08:24.431Z,70.80
2018-07-17T04:09:28.437Z,70.00
2018-07-17T04:10:32.506Z,69.90
2018-07-17T04:11:36.644Z,70.00
2018-07-17T04:12:40.685Z,69.90
2018-07-17T04:13:44.806Z,70.00
2018-07-17T04:14:48.904Z,70.30
2018-07-17T04:15:52.998Z,70.30
2018-07-17T04:16:57.117Z,70.20
2018-07-17T04:18:01.207Z,70.30
2018-07-17T04:19:05.281Z,71.00
2018-07-17T04:20:09.408Z,70.30
2018-07-17T04:21:13.486Z,71.20
2018-07-17T04:22:18.075Z,70.30
2018-07-17T04:23:22.199Z,70.60
2018-07-17T04:24:26.312Z,70.40
2018-07-17T04:25:30.358Z,70.10
2018-07-17T04:26:34.502Z,70.40
2018-07-17T04:27:38.611Z,70.60
2018-07-17T04:28:42.740Z,71.30
2018-07-17T04:29:46.738Z,70.60
2018-07-17T04:30:50.768Z,70.70
2018-07-17T04:31:54.774Z,70.50
2018-07-17T04:32:58.871Z,70.50
2018-07-17T04:34:02.883Z,70.40
2018-07-17T04:35:07.003Z,70.60
2018-07-17T04:36:10.994Z,70.50
2018-07-17T04:37:15.088Z,70.60
2018-07-17T04:38:19.149Z,71.30
2018-07-17T04:39:23.154Z,71.30
2018-07-17T04:40:27.212Z,70.70
2018-07-17T04:41:31.272Z,70.60
2018-07-17T04:42:35.320Z,70.70
2018-07-17T04:43:39.429Z,70.60
2018-07-17T04:44:43.433Z,70.70
2018-07-17T04:45:47.498Z,70.60
2018-07-17T04:46:51.636Z,71.30
2018-07-17T04:47:55.689Z,70.50
2018-07-17T04:48:59.781Z,70.60
2018-07-17T04:50:03.866Z,70.60
2018-07-17T04:51:07.944Z,70.40
2018-07-17T04:52:12.673Z,70.40
2018-07-17T04:53:16.768Z,70.20
2018-07-17T04:54:20.905Z,70.20
2018-07-17T04:55:24.958Z,70.00
2018-07-17T04:56:29.075Z,70.80
2018-07-17T04:57:33.164Z,69.90
2018-07-17T04:58:37.193Z,70.00
2018-07-17T04:59:41.242Z,70.00
2018-07-17T05:00:46.379Z,70.00
2018-07-17T05:01:50.529Z,69.90
2018-07-17T05:02:54.504Z,69.80
2018-07-17T05:03:58.625Z,69.70
2018-07-17T05:05:02.661Z,69.90
2018-07-17T05:06:06.733Z,69.80
2018-07-17T05:07:10.842Z,69.70
2018-07-17T05:09:18.622Z,70.30
2018-07-17T05:11:26.383Z,69.70
2018-07-17T05:12:30.455Z,69.60
2018-07-17T05:13:34.546Z,69.70
2018-07-17T05:14:38.593Z,69.60
2018-07-17T05:15:42.704Z,69.60
2018-07-17T05:16:46.830Z,69.50
2018-07-17T05:17:50.855Z,69.50
2018-07-17T05:18:54.905Z,69.40
2018-07-17T05:19:58.996Z,70.20
2018-07-17T05:21:03.055Z,69.30
2018-07-17T05:23:10.958Z,69.50
2018-07-17T05:24:15.060Z,69.40
2018-07-17T05:26:22.857Z,69.20
2018-07-17T05:27:26.945Z,69.10
2018-07-17T05:28:31.031Z,69.10
2018-07-17T05:29:35.065Z,69.10
2018-07-17T05:30:39.108Z,69.00
2018-07-17T05:31:43.296Z,69.00
2018-07-17T05:32:47.423Z,69.00
2018-07-17T05:33:51.719Z,69.00
2018-07-17T05:34:55.968Z,69.00
2018-07-17T05:36:00.186Z,69.00
2018-07-17T05:38:08.054Z,68.50
2018-07-17T05:39:12.402Z,68.80
2018-07-17T05:40:16.528Z,68.70
2018-07-17T05:41:20.625Z,68.80
2018-07-17T05:42:25.114Z,68.70
2018-07-17T05:43:29.306Z,68.60
2018-07-17T05:44:33.388Z,68.60
2018-07-17T05:45:37.418Z,68.60
2018-07-17T05:46:41.556Z,68.50
2018-07-17T05:48:49.297Z,67.80
2018-07-17T05:49:53.355Z,68.30
2018-07-17T05:50:57.391Z,68.20
2018-07-17T05:52:01.444Z,68.20
2018-07-17T05:53:05.448Z,68.10
2018-07-17T05:54:09.479Z,68.00
2018-07-17T05:55:13.579Z,68.00
2018-07-17T05:56:17.726Z,68.00
2018-07-17T05:57:21.912Z,67.90
2018-07-17T05:58:25.993Z,68.70
2018-07-17T05:59:30.060Z,67.80
2018-07-17T06:00:34.164Z,67.80
2018-07-17T06:01:38.243Z,67.80
2018-07-17T06:02:42.314Z,67.80
2018-07-17T06:03:46.362Z,67.70
2018-07-17T06:04:50.374Z,67.60
2018-07-17T06:05:54.514Z,67.50
2018-07-17T06:06:58.657Z,67.50
2018-07-17T06:08:02.732Z,67.40
2018-07-17T06:09:08.516Z,68.10
2018-07-17T06:10:12.654Z,67.30
2018-07-17T06:11:22.889Z,67.20
2018-07-17T06:12:33.068Z,67.10
2018-07-17T06:13:43.570Z,66.90
2018-07-17T06:14:53.597Z,66.90
2018-07-17T06:16:03.831Z,66.80
2018-07-17T06:17:13.874Z,66.60
2018-07-17T06:18:17.951Z,66.60
2018-07-17T06:19:22.053Z,66.60
2018-07-17T06:20:26.092Z,66.50
2018-07-17T06:22:33.869Z,66.50
2018-07-17T06:23:37.989Z,66.40
2018-07-17T06:24:42.121Z,66.20
2018-07-17T06:25:46.280Z,66.30
2018-07-17T06:26:50.310Z,66.10
2018-07-17T06:27:54.491Z,66.00
2018-07-17T06:28:58.568Z,65.80
2018-07-17T06:30:02.594Z,65.80
2018-07-17T06:31:06.712Z,65.70
2018-07-17T06:32:10.889Z,65.60
2018-07-17T06:33:14.968Z,65.50
2018-07-17T06:34:19.143Z,66.20
2018-07-17T06:35:23.144Z,65.30
2018-07-17T06:36:27.238Z,65.20
2018-07-17T06:37:31.269Z,65.10
2018-07-17T06:38:35.385Z,64.80
2018-07-17T06:39:39.656Z,64.60
2018-07-17T06:40:43.924Z,64.60
2018-07-17T06:41:48.205Z,64.40
2018-07-17T06:42:52.523Z,64.30
2018-07-17T06:45:00.369Z,64.30
2018-07-17T06:46:04.988Z,64.30
2018-07-17T06:47:09.063Z,64.30
2018-07-17T06:48:13.233Z,64.10
2018-07-17T06:49:17.390Z,64.00
2018-07-17T06:50:21.614Z,64.00
2018-07-17T06:51:25.599Z,64.00
2018-07-17T06:52:29.731Z,64.00
2018-07-17T06:53:33.799Z,64.00
2018-07-17T06:54:37.879Z,63.90
2018-07-17T06:55:41.945Z,63.90
2018-07-17T06:56:46.038Z,63.90
2018-07-17T06:57:50.243Z,63.80
2018-07-17T06:58:54.332Z,63.80
2018-07-17T06:59:58.392Z,63.70
2018-07-17T07:01:02.523Z,63.70
2018-07-17T07:02:06.618Z,63.60
2018-07-17T07:03:10.916Z,63.60
2018-07-17T07:04:14.978Z,63.50
2018-07-17T07:06:22.797Z,63.10
2018-07-17T07:07:26.889Z,63.10
2018-07-17T07:08:30.883Z,62.90
2018-07-17T07:09:35.036Z,63.70
2018-07-17T07:10:39.124Z,62.70
2018-07-17T07:11:43.237Z,62.70
2018-07-17T07:12:47.315Z,62.60
2018-07-17T07:14:55.121Z,61.90
2018-07-17T07:15:59.206Z,63.00
2018-07-17T07:17:03.276Z,62.50
2018-07-17T07:18:07.349Z,62.50
2018-07-17T07:19:11.412Z,62.50
2018-07-17T07:20:15.384Z,62.50
2018-07-17T07:21:19.512Z,62.40
2018-07-17T07:22:23.616Z,62.40
2018-07-17T07:23:27.741Z,62.40
2018-07-17T07:24:31.826Z,62.40
2018-07-17T07:25:35.873Z,62.40
2018-07-17T07:26:40.351Z,62.40
2018-07-17T07:27:44.373Z,62.10
2018-07-17T07:28:48.453Z,61.90
2018-07-17T07:29:52.485Z,61.70
2018-07-17T07:30:56.647Z,61.70
2018-07-17T07:32:00.691Z,61.60
2018-07-17T07:33:04.990Z,61.70
2018-07-17T07:34:09.288Z,61.70
2018-07-17T07:35:13.354Z,61.70
2018-07-17T07:36:17.365Z,61.60
2018-07-17T07:37:21.783Z,61.50
2018-07-17T07:38:25.878Z,61.30
2018-07-17T07:39:29.896Z,61.20
2018-07-17T07:41:37.898Z,62.00
2018-07-17T07:42:42.054Z,61.20
2018-07-17T07:43:46.062Z,61.10
2018-07-17T07:44:50.110Z,61.00
2018-07-17T07:45:54.126Z,60.70
2018-07-17T07:46:58.199Z,60.60
2018-07-17T07:48:02.310Z,60.20
2018-07-17T07:51:13.920Z,59.60
2018-07-17T07:52:18.000Z,59.60
2018-07-17T07:53:22.089Z,59.50
2018-07-17T07:54:26.228Z,59.40
2018-07-17T07:55:30.308Z,59.30
2018-07-17T07:56:34.431Z,59.10
2018-07-17T07:57:38.506Z,59.10
2018-07-17T07:58:42.494Z,59.60
2018-07-17T07:59:46.522Z,59.00
2018-07-17T08:01:54.310Z,59.10
2018-07-17T08:02:58.334Z,58.90
2018-07-17T08:04:02.415Z,58.90
2018-07-17T08:05:06.844Z,58.80
2018-07-17T08:06:10.922Z,58.80
2018-07-17T08:07:14.990Z,58.70
2018-07-17T08:08:19.049Z,58.70
2018-07-17T08:09:23.136Z,58.60
2018-07-17T08:10:27.300Z,58.50
2018-07-17T08:11:31.546Z,58.40
2018-07-17T08:12:35.582Z,58.10
2018-07-17T08:13:39.593Z,57.80
2018-07-17T08:14:43.703Z,57.60
2018-07-17T08:15:47.775Z,57.30
2018-07-17T08:16:51.799Z,57.30
2018-07-17T08:17:55.805Z,57.20
2018-07-17T08:18:59.911Z,57.10
2018-07-17T08:20:03.950Z,56.90
2018-07-17T08:21:08.020Z,56.90
2018-07-17T08:22:12.102Z,56.90
2018-07-17T08:23:16.267Z,56.90
2018-07-17T08:24:20.385Z,57.00
2018-07-17T08:25:24.417Z,57.00
2018-07-17T08:26:28.538Z,56.70
2018-07-17T08:27:32.789Z,56.60
2018-07-17T08:28:37.201Z,56.50
2018-07-17T08:29:41.366Z,56.50
2018-07-17T08:30:46.082Z,56.50
2018-07-17T08:31:50.197Z,56.40
2018-07-17T08:32:54.300Z,56.20
2018-07-17T08:33:58.408Z,56.20
2018-07-17T08:35:02.514Z,56.10
2018-07-17T08:36:06.594Z,56.00
2018-07-17T08:37:10.768Z,55.80
2018-07-17T08:38:14.944Z,55.80
2018-07-17T08:39:19.040Z,55.70
2018-07-17T08:41:26.813Z,55.30
2018-07-17T08:42:30.833Z,55.30
2018-07-17T08:43:34.990Z,55.30
2018-07-17T08:44:39.089Z,55.40
2018-07-17T08:45:43.474Z,55.30
2018-07-17T08:46:47.631Z,55.30
2018-07-17T08:47:51.743Z,55.40
2018-07-17T08:48:55.923Z,55.20
2018-07-17T08:50:00.009Z,55.00
2018-07-17T08:51:04.139Z,54.90
2018-07-17T08:52:08.190Z,54.70
2018-07-17T08:53:12.285Z,54.70
2018-07-17T08:54:16.397Z,54.20
2018-07-17T08:55:20.482Z,54.00
2018-07-17T08:56:24.569Z,54.00
2018-07-17T08:57:28.632Z,53.60
2018-07-17T08:58:32.726Z,53.60
2018-07-17T08:59:36.906Z,53.40
2018-07-17T09:00:41.005Z,53.30
2018-07-17T09:01:45.068Z,53.10
2018-07-17T09:02:49.340Z,53.10
2018-07-17T09:03:53.379Z,52.80
2018-07-17T09:04:57.390Z,52.70
2018-07-17T09:06:01.433Z,52.60
2018-07-17T09:07:05.473Z,52.70
2018-07-17T09:08:09.668Z,52.70
2018-07-17T09:09:16.206Z,52.60
2018-07-17T09:10:20.341Z,52.30
2018-07-17T09:11:25.798Z,52.20
2018-07-17T09:12:30.049Z,52.20
2018-07-17T09:13:34.209Z,52.10
2018-07-17T09:14:38.214Z,52.00
2018-07-17T09:15:42.393Z,52.30
2018-07-17T09:16:46.481Z,51.20
2018-07-17T09:17:50.597Z,50.70
2018-07-17T09:18:54.675Z,50.40
2018-07-17T09:20:05.063Z,50.30
2018-07-17T09:21:09.516Z,50.20
2018-07-17T09:22:13.956Z,50.00
2018-07-17T09:24:21.724Z,49.40
2018-07-17T09:25:25.820Z,49.50
2018-07-17T09:26:29.830Z,49.30
2018-07-17T09:27:33.968Z,49.30
2018-07-17T09:28:38.049Z,49.00
2018-07-17T09:29:42.079Z,48.60
2018-07-17T09:30:51.668Z,48.20
2018-07-17T09:31:55.681Z,47.90
2018-07-17T09:32:59.729Z,47.80
2018-07-17T09:34:03.854Z,48.30
2018-07-17T09:35:07.929Z,47.60
2018-07-17T09:36:12.027Z,47.60
2018-07-17T09:37:16.105Z,48.10
2018-07-17T09:38:20.231Z,47.30
2018-07-17T09:39:24.267Z,47.30
2018-07-17T09:40:28.353Z,47.00
2018-07-17T09:41:32.536Z,46.90
2018-07-17T09:42:38.098Z,46.90
2018-07-17T09:43:42.285Z,46.80
2018-07-17T09:44:46.469Z,46.90
2018-07-17T09:45:50.735Z,47.00
2018-07-17T09:46:54.765Z,47.10
2018-07-17T09:47:58.892Z,45.80
2018-07-17T09:49:03.063Z,45.60
2018-07-17T09:50:07.169Z,45.50
2018-07-17T09:51:11.176Z,45.50
2018-07-17T09:52:15.192Z,45.30
2018-07-17T09:53:19.261Z,45.10
2018-07-17T09:54:23.336Z,44.80
2018-07-17T09:55:27.433Z,44.60
2018-07-17T09:56:31.521Z,44.70
2018-07-17T09:57:35.632Z,45.00
2018-07-17T09:58:39.702Z,44.70
2018-07-17T09:59:43.831Z,44.70
2018-07-17T10:00:53.245Z,44.70
2018-07-17T10:02:03.773Z,44.40
2018-07-17T10:03:07.890Z,44.20
2018-07-17T10:04:11.954Z,44.00
2018-07-17T10:05:16.051Z,43.90
2018-07-17T10:06:20.252Z,43.70
2018-07-17T10:07:24.422Z,43.60
2018-07-17T10:08:28.545Z,43.40
2018-07-17T10:09:32.760Z,43.10
2018-07-17T10:10:36.886Z,43.00
2018-07-17T10:11:40.959Z,43.10
2018-07-17T10:12:45.044Z,43.00
2018-07-17T10:13:49.124Z,42.90
2018-07-17T10:14:53.429Z,42.80
2018-07-17T10:15:57.724Z,42.90
2018-07-17T10:17:01.794Z,43.10
2018-07-17T10:18:05.935Z,43.10
2018-07-17T10:19:09.984Z,43.10
2018-07-17T10:20:14.173Z,42.50
2018-07-17T10:21:18.189Z,42.40
2018-07-17T10:22:22.371Z,42.00
2018-07-17T10:23:26.497Z,42.10
2018-07-17T10:24:30.568Z,42.00
2018-07-17T10:25:34.693Z,42.10
2018-07-17T10:26:38.889Z,42.10
2018-07-17T10:27:42.909Z,41.90
2018-07-17T10:28:46.959Z,41.70
2018-07-17T10:29:51.017Z,41.70
2018-07-17T10:30:55.119Z,41.70
2018-07-17T10:31:59.178Z,41.50
2018-07-17T10:33:03.278Z,41.30
2018-07-17T10:34:07.364Z,41.70
2018-07-17T10:35:11.729Z,40.20
2018-07-17T10:36:15.772Z,40.00
2018-07-17T10:37:19.822Z,39.50
2018-07-17T10:38:23.839Z,39.60
2018-07-17T10:39:28.062Z,40.00
2018-07-17T10:40:32.200Z,39.50
2018-07-17T10:41:36.595Z,39.00
2018-07-17T10:42:40.779Z,38.60
2018-07-17T10:43:44.906Z,38.90
2018-07-17T10:44:49.041Z,39.00
2018-07-17T10:46:57.023Z,39.20
2018-07-17T10:48:01.087Z,39.00
2018-07-17T10:49:05.184Z,39.00
2018-07-17T10:50:09.191Z,39.20
2018-07-17T10:51:13.278Z,39.20
2018-07-17T10:53:21.087Z,39.00
2018-07-17T10:54:25.154Z,38.70
2018-07-17T10:55:29.236Z,38.50
2018-07-17T10:56:33.311Z,38.80
2018-07-17T10:57:37.387Z,38.40
2018-07-17T10:58:41.544Z,38.40
2018-07-17T10:59:45.623Z,37.90
2018-07-17T11:00:49.918Z,38.20
2018-07-17T11:01:53.868Z,37.30
2018-07-17T11:02:57.962Z,36.60
2018-07-17T11:04:01.999Z,36.10
2018-07-17T11:05:06.121Z,36.00
2018-07-17T11:06:10.457Z,35.60
2018-07-17T11:07:14.728Z,35.10
2018-07-17T11:08:18.860Z,35.70
2018-07-17T11:09:22.955Z,35.00
2018-07-17T11:10:27.088Z,34.90
2018-07-17T11:11:31.152Z,34.80
2018-07-17T11:12:35.200Z,34.80
2018-07-17T11:13:39.265Z,34.60
2018-07-17T11:14:43.386Z,34.20
2018-07-17T11:15:47.531Z,34.20
2018-07-17T11:16:51.634Z,33.60
2018-07-17T11:17:55.695Z,33.10
2018-07-17T11:18:59.848Z,33.20
2018-07-17T11:20:04.020Z,33.20
2018-07-17T11:21:08.902Z,33.70
2018-07-17T11:22:13.876Z,33.20
2018-07-17T11:23:17.934Z,32.90
2018-07-17T11:24:22.008Z,33.30
2018-07-17T11:25:26.110Z,32.70
2018-07-17T11:26:30.194Z,32.50
2018-07-17T11:27:34.320Z,32.10
2018-07-17T11:28:38.373Z,31.70
2018-07-17T11:29:42.425Z,31.80
2018-07-17T11:30:46.546Z,32.10
2018-07-17T11:31:50.752Z,33.00
2018-07-17T11:32:54.747Z,32.50
2018-07-17T11:33:58.785Z,32.40
2018-07-17T11:35:02.881Z,32.50
2018-07-17T11:36:07.115Z,32.40
2018-07-17T11:37:11.151Z,32.40
2018-07-17T11:38:15.591Z,32.40
2018-07-17T11:39:19.642Z,31.80
2018-07-17T11:40:23.753Z,31.00
2018-07-17T11:41:27.830Z,30.90
2018-07-17T11:42:32.046Z,30.80
2018-07-17T11:43:36.139Z,31.10
2018-07-17T11:44:40.210Z,30.60
2018-07-17T11:45:44.332Z,30.40
2018-07-17T11:46:48.435Z,30.60
2018-07-17T11:47:52.580Z,31.20
2018-07-17T11:48:56.648Z,30.70
2018-07-17T11:50:00.726Z,31.00
2018-07-17T11:51:04.987Z,31.70
2018-07-17T11:52:09.045Z,31.10
2018-07-17T11:53:13.199Z,31.00
2018-07-17T11:54:17.364Z,30.70
2018-07-17T11:55:21.426Z,30.30
2018-07-17T11:56:25.467Z,30.20
2018-07-17T11:57:29.594Z,30.00
2018-07-17T11:58:33.701Z,29.80
2018-07-17T11:59:37.982Z,29.70
2018-07-17T12:00:41.939Z,29.50
2018-07-17T12:01:46.027Z,29.20
2018-07-17T12:02:50.097Z,29.10
2018-07-17T12:03:54.104Z,29.10
2018-07-17T12:07:05.821Z,28.90
2018-07-17T12:08:09.897Z,28.90
2018-07-17T12:09:13.961Z,28.70
2018-07-17T12:10:18.136Z,28.40
2018-07-17T12:12:26.514Z,28.20
2018-07-17T12:14:34.243Z,27.80
2018-07-17T12:15:38.444Z,28.00
2018-07-17T12:16:42.623Z,28.10
2018-07-17T12:17:46.706Z,28.00
2018-07-17T12:18:50.788Z,28.10
2018-07-17T12:19:55.472Z,28.00
2018-07-17T12:20:59.429Z,28.30
2018-07-17T12:22:03.565Z,27.70
2018-07-17T12:23:07.675Z,27.60
2018-07-17T12:24:11.781Z,27.50
2018-07-17T12:25:15.936Z,27.40
2018-07-17T12:26:19.985Z,27.90
2018-07-17T12:27:23.989Z,27.20
2018-07-17T12:28:28.034Z,27.20
2018-07-17T12:29:32.113Z,27.30
2018-07-17T12:30:36.205Z,27.40
2018-07-17T12:31:40.334Z,27.70
2018-07-17T12:34:51.790Z,27.70
2018-07-17T12:35:55.909Z,27.70
2018-07-17T12:36:59.991Z,28.00
2018-07-17T12:38:04.012Z,27.60
2018-07-17T12:40:12.571Z,27.40
2018-07-17T12:41:16.687Z,26.70
2018-07-17T12:42:20.878Z,26.60
2018-07-17T12:43:25.137Z,26.30
2018-07-17T12:44:29.229Z,26.30
2018-07-17T12:45:33.232Z,26.20
2018-07-17T12:46:37.386Z,26.20
2018-07-17T12:47:41.464Z,26.20
2018-07-17T12:48:45.508Z,26.40
2018-07-17T12:49:49.661Z,26.60
2018-07-17T12:50:53.754Z,26.60
2018-07-17T12:51:57.810Z,26.60
2018-07-17T12:53:01.904Z,26.70
2018-07-17T12:54:06.315Z,26.60
2018-07-17T12:55:10.691Z,26.70
2018-07-17T12:56:14.659Z,26.70
2018-07-17T12:57:18.785Z,26.70
2018-07-17T12:58:22.806Z,26.90
2018-07-17T12:59:26.896Z,26.90
2018-07-17T13:00:31.080Z,26.90
2018-07-17T13:01:35.142Z,26.90
2018-07-17T13:02:39.174Z,26.90
2018-07-17T13:03:43.476Z,27.00
2018-07-17T13:04:47.729Z,27.10
2018-07-17T13:05:51.774Z,27.20
2018-07-17T13:06:55.853Z,27.50
2018-07-17T13:07:59.874Z,27.60
2018-07-17T13:09:05.068Z,27.80
2018-07-17T13:10:09.371Z,27.90
2018-07-17T13:11:13.412Z,28.10
2018-07-17T13:12:17.648Z,28.20
2018-07-17T13:13:21.731Z,28.30
2018-07-17T13:14:25.851Z,28.40
2018-07-17T13:15:29.975Z,28.40
2018-07-17T13:16:34.295Z,28.40
2018-07-17T13:17:38.408Z,28.50
2018-07-17T13:18:42.442Z,28.40
2018-07-17T13:19:46.523Z,28.50
2018-07-17T13:20:50.525Z,28.50
2018-07-17T13:21:54.661Z,28.60
2018-07-17T13:22:59.674Z,28.80
2018-07-17T13:24:03.963Z,29.10
2018-07-17T13:25:08.060Z,29.30
2018-07-17T13:26:12.117Z,29.40
2018-07-17T13:27:16.243Z,29.90
2018-07-17T13:28:20.311Z,29.40
2018-07-17T13:29:24.414Z,29.50
2018-07-17T13:30:28.469Z,29.50
2018-07-17T13:31:32.692Z,29.50
2018-07-17T13:32:36.861Z,29.60
2018-07-17T13:33:40.925Z,29.70
2018-07-17T13:34:47.752Z,29.80
2018-07-17T13:36:55.595Z,30.20
2018-07-17T13:37:59.682Z,30.60
2018-07-17T13:39:05.694Z,30.70
2018-07-17T13:40:09.744Z,30.70
2018-07-17T13:41:13.782Z,30.90
2018-07-17T13:42:18.631Z,31.00
2018-07-17T13:43:22.704Z,31.30
2018-07-17T13:44:26.727Z,31.20
2018-07-17T13:45:31.060Z,31.20
2018-07-17T13:46:35.073Z,32.00
2018-07-17T13:47:39.153Z,31.00
2018-07-17T13:48:43.339Z,30.80
2018-07-17T13:49:47.450Z,31.20
2018-07-17T13:50:51.575Z,30.10
2018-07-17T13:51:55.706Z,30.00
2018-07-17T13:52:59.867Z,29.80
2018-07-17T13:54:03.852Z,29.70
2018-07-17T13:55:07.895Z,29.50
2018-07-17T13:56:12.086Z,29.50
2018-07-17T13:57:16.195Z,29.50
2018-07-17T13:58:20.436Z,29.30
2018-07-17T13:59:24.594Z,28.80
2018-07-17T14:00:28.623Z,29.30
2018-07-17T14:01:32.802Z,29.70
2018-07-17T14:02:36.934Z,29.20
2018-07-17T14:03:41.010Z,29.20
2018-07-17T14:05:48.752Z,28.80
2018-07-17T14:06:52.915Z,28.70
2018-07-17T14:07:57.101Z,28.60
2018-07-17T14:09:01.212Z,28.70
2018-07-17T14:10:05.488Z,29.10
2018-07-17T14:11:09.716Z,28.60
2018-07-17T14:12:13.775Z,28.60
2018-07-17T14:13:17.872Z,29.00
2018-07-17T14:14:21.970Z,29.20
2018-07-17T14:15:26.229Z,29.30
2018-07-17T14:16:30.303Z,29.50
2018-07-17T14:17:34.435Z,29.60
2018-07-17T14:18:38.534Z,29.80
2018-07-17T14:19:42.655Z,29.90
2018-07-17T14:20:46.687Z,30.00
2018-07-17T14:21:50.749Z,30.20
2018-07-17T14:22:54.832Z,30.40